createdAt,value
2019-03-29T00:00:03.130Z,12.66
2019-03-29T00:01:03.105Z,12.73
2019-03-29T00:02:03.086Z,12.65
2019-03-29T00:03:03.071Z,12.63
2019-03-29T00:04:03.059Z,12.65
2019-03-29T00:05:03.036Z,12.61
2019-03-29T00:06:03.017Z,12.61
2019-03-29T00:07:03.960Z,12.46
2019-03-29T00:08:02.987Z,12.48
2019-03-29T00:09:02.963Z,12.46
2019-03-29T00:10:02.950Z,12.46
2019-03-29T00:11:02.927Z,12.41
2019-03-29T00:12:02.910Z,12.46
2019-03-29T00:13:02.897Z,12.28
2019-03-29T00:14:02.874Z,12.35
2019-03-29T00:15:02.858Z,12.33
2019-03-29T00:16:02.839Z,12.28
2019-03-29T00:17:02.823Z,12.33
2019-03-29T00:18:02.803Z,12.32
2019-03-29T00:19:02.786Z,12.38
2019-03-29T00:20:06.006Z,12.32
2019-03-29T00:21:02.751Z,12.26
2019-03-29T00:22:02.734Z,12.18
2019-03-29T00:23:02.714Z,12.11
2019-03-29T00:24:06.957Z,12.14
2019-03-29T00:25:02.678Z,11.99
2019-03-29T00:26:02.658Z,11.97
2019-03-29T00:27:02.646Z,11.99
2019-03-29T00:28:02.621Z,11.99
2019-03-29T00:29:03.205Z,11.99
2019-03-29T00:30:02.583Z,12.04
2019-03-29T00:31:02.565Z,11.97
2019-03-29T00:32:02.554Z,11.97
2019-03-29T00:33:02.528Z,11.93
2019-03-29T00:34:02.514Z,11.93
2019-03-29T00:35:02.491Z,11.88
2019-03-29T00:36:02.480Z,11.82
2019-03-29T00:37:02.473Z,11.93
2019-03-29T00:38:02.447Z,11.85
2019-03-29T00:39:02.418Z,11.80
2019-03-29T00:40:02.400Z,11.84
2019-03-29T00:41:02.383Z,11.82
2019-03-29T00:42:02.365Z,11.85
2019-03-29T00:43:02.348Z,11.88
2019-03-29T00:44:02.332Z,11.85
2019-03-29T00:45:02.311Z,11.88
2019-03-29T00:46:02.292Z,11.95
2019-03-29T00:47:02.329Z,11.82
2019-03-29T00:48:02.254Z,11.85
2019-03-29T00:49:02.239Z,11.89
2019-03-29T00:50:02.217Z,11.95
2019-03-29T00:51:02.200Z,11.85
2019-03-29T00:52:02.180Z,11.88
2019-03-29T00:53:02.170Z,11.88
2019-03-29T00:54:02.326Z,11.85
2019-03-29T00:55:02.125Z,11.73
2019-03-29T00:56:02.106Z,11.87
2019-03-29T00:57:02.091Z,11.74
2019-03-29T00:58:02.069Z,11.69
2019-03-29T00:59:02.052Z,11.70
2019-03-29T01:00:02.033Z,11.62
2019-03-29T01:01:02.018Z,11.52
2019-03-29T01:02:01.996Z,11.56
2019-03-29T01:03:01.982Z,11.49
2019-03-29T01:04:02.926Z,11.49
2019-03-29T01:05:01.943Z,11.54
2019-03-29T01:06:01.925Z,11.41
2019-03-29T01:07:01.904Z,11.40
2019-03-29T01:08:08.084Z,11.49
2019-03-29T01:09:01.868Z,11.45
2019-03-29T01:10:01.848Z,11.49
2019-03-29T01:11:01.830Z,11.38
2019-03-29T01:12:01.813Z,11.43
2019-03-29T01:13:01.797Z,11.34
2019-03-29T01:14:01.827Z,11.33
2019-03-29T01:15:01.764Z,11.28
2019-03-29T01:16:01.883Z,11.30
2019-03-29T01:17:01.717Z,11.31
2019-03-29T01:18:01.701Z,11.30
2019-03-29T01:19:01.681Z,11.31
2019-03-29T01:20:01.666Z,11.31
2019-03-29T01:21:01.642Z,11.25
2019-03-29T01:22:01.625Z,11.31
2019-03-29T01:23:01.606Z,11.23
2019-03-29T01:24:01.588Z,11.25
2019-03-29T01:25:01.577Z,11.28
2019-03-29T01:26:01.561Z,11.30
2019-03-29T01:27:01.540Z,11.20
2019-03-29T01:28:01.521Z,11.18
2019-03-29T01:29:01.496Z,11.08
2019-03-29T01:30:01.479Z,11.08
2019-03-29T01:31:01.458Z,11.00
2019-03-29T01:32:01.438Z,11.04
2019-03-29T01:33:01.424Z,11.01
2019-03-29T01:34:01.401Z,10.97
2019-03-29T01:35:01.386Z,11.00
2019-03-29T01:36:02.059Z,10.93
2019-03-29T01:37:01.348Z,10.90
2019-03-29T01:38:01.325Z,10.83
2019-03-29T01:39:01.310Z,10.90
2019-03-29T01:40:01.290Z,10.83
2019-03-29T01:41:01.363Z,10.86
2019-03-29T01:42:01.260Z,10.82
2019-03-29T01:43:01.235Z,10.78
2019-03-29T01:44:01.879Z,10.72
2019-03-29T01:45:01.195Z,10.79
2019-03-29T01:46:01.180Z,10.76
2019-03-29T01:47:01.155Z,10.73
2019-03-29T01:48:01.133Z,10.73
2019-03-29T01:49:01.115Z,10.75
2019-03-29T01:50:01.104Z,10.75
2019-03-29T01:51:01.316Z,10.76
2019-03-29T01:52:01.060Z,10.76
2019-03-29T01:53:01.041Z,10.67
2019-03-29T01:54:01.023Z,10.75
2019-03-29T01:55:01.017Z,10.78
2019-03-29T01:56:00.996Z,10.72
2019-03-29T01:57:00.969Z,10.76
2019-03-29T01:58:00.946Z,10.67
2019-03-29T01:59:00.931Z,10.67
2019-03-29T02:00:00.917Z,10.70
2019-03-29T02:01:00.890Z,10.61
2019-03-29T02:02:00.871Z,10.60
2019-03-29T02:03:00.857Z,10.55
2019-03-29T02:04:00.831Z,10.52
2019-03-29T02:05:01.207Z,10.57
2019-03-29T02:06:00.798Z,10.54
2019-03-29T02:07:00.774Z,10.54
2019-03-29T02:08:00.755Z,10.49
2019-03-29T02:09:00.746Z,10.42
2019-03-29T02:10:00.729Z,10.43
2019-03-29T02:11:00.700Z,10.43
2019-03-29T02:12:00.678Z,10.45
2019-03-29T02:13:00.659Z,10.45
2019-03-29T02:14:00.642Z,10.45
2019-03-29T02:15:00.634Z,10.41
2019-03-29T02:16:00.604Z,10.41
2019-03-29T02:17:00.586Z,10.23
2019-03-29T02:18:00.567Z,10.36
2019-03-29T02:19:00.545Z,10.36
2019-03-29T02:20:00.557Z,10.28
2019-03-29T02:21:00.512Z,10.27
2019-03-29T02:22:00.492Z,10.30
2019-03-29T02:23:00.477Z,10.31
2019-03-29T02:24:00.467Z,10.27
2019-03-29T02:25:00.464Z,10.23
2019-03-29T02:26:00.414Z,10.28
2019-03-29T02:27:00.954Z,10.34
2019-03-29T02:28:00.375Z,10.24
2019-03-29T02:29:00.356Z,10.27
2019-03-29T02:30:00.602Z,10.24
2019-03-29T02:31:00.319Z,10.20
2019-03-29T02:32:00.303Z,10.24
2019-03-29T02:33:00.287Z,10.20
2019-03-29T02:34:00.262Z,10.23
2019-03-29T02:35:00.469Z,10.20
2019-03-29T02:36:00.224Z,10.12
2019-03-29T02:37:01.923Z,10.12
2019-03-29T02:38:00.202Z,10.09
2019-03-29T02:39:00.164Z,10.05
2019-03-29T02:40:00.384Z,10.01
2019-03-29T02:41:00.123Z,9.94
2019-03-29T02:42:00.109Z,9.91
2019-03-29T02:43:00.101Z,9.94
2019-03-29T02:44:00.063Z,9.96
2019-03-29T02:45:00.045Z,9.96
2019-03-29T02:46:00.028Z,10.02
2019-03-29T02:47:00.009Z,10.01
2019-03-29T02:48:00.005Z,10.09
2019-03-29T02:48:59.974Z,10.09
2019-03-29T02:49:59.950Z,10.03
2019-03-29T02:50:59.928Z,10.14
2019-03-29T02:51:59.910Z,10.08
2019-03-29T02:52:59.891Z,10.10
2019-03-29T02:53:59.873Z,10.12
2019-03-29T02:54:59.851Z,10.12
2019-03-29T02:55:59.832Z,10.01
2019-03-29T02:56:59.817Z,10.09
2019-03-29T02:57:59.791Z,10.03
2019-03-29T02:58:59.778Z,10.01
2019-03-29T02:59:59.752Z,10.01
2019-03-29T03:00:59.733Z,9.88
2019-03-29T03:01:59.727Z,9.87
2019-03-29T03:02:59.696Z,9.91
2019-03-29T03:03:59.677Z,9.84
2019-03-29T03:04:59.659Z,9.70
2019-03-29T03:05:59.636Z,9.70
2019-03-29T03:06:59.617Z,9.81
2019-03-29T03:07:59.609Z,9.78
2019-03-29T03:09:13.045Z,9.78
2019-03-29T03:09:59.559Z,9.77
2019-03-29T03:10:59.541Z,9.78
2019-03-29T03:11:59.517Z,9.73
2019-03-29T03:12:59.516Z,9.75
2019-03-29T03:13:59.483Z,9.70
2019-03-29T03:14:59.462Z,9.62
2019-03-29T03:15:59.441Z,9.67
2019-03-29T03:16:59.422Z,9.60
2019-03-29T03:17:59.404Z,9.60
2019-03-29T03:18:59.383Z,9.65
2019-03-29T03:19:59.366Z,9.60
2019-03-29T03:20:59.344Z,9.65
2019-03-29T03:21:59.325Z,9.59
2019-03-29T03:22:59.383Z,9.55
2019-03-29T03:23:59.283Z,9.59
2019-03-29T03:24:59.264Z,9.50
2019-03-29T03:25:59.245Z,9.42
2019-03-29T03:26:59.254Z,9.45
2019-03-29T03:27:59.206Z,9.40
2019-03-29T03:28:59.195Z,9.40
2019-03-29T03:29:59.167Z,9.42
2019-03-29T03:30:59.161Z,9.42
2019-03-29T03:31:59.164Z,9.48
2019-03-29T03:32:59.108Z,9.40
2019-03-29T03:33:59.101Z,9.44
2019-03-29T03:34:59.068Z,9.44
2019-03-29T03:35:59.048Z,9.42
2019-03-29T03:36:59.031Z,9.41
2019-03-29T03:37:59.012Z,9.45
2019-03-29T03:38:58.999Z,9.41
2019-03-29T03:39:58.967Z,9.40
2019-03-29T03:40:58.949Z,9.40
2019-03-29T03:41:58.929Z,9.34
2019-03-29T03:42:58.913Z,9.27
2019-03-29T03:43:58.893Z,9.30
2019-03-29T03:44:58.872Z,9.36
2019-03-29T03:45:58.858Z,9.26
2019-03-29T03:46:58.851Z,9.26
2019-03-29T03:47:58.811Z,9.26
2019-03-29T03:48:58.793Z,9.29
2019-03-29T03:50:00.815Z,9.27
2019-03-29T03:50:58.750Z,9.37
2019-03-29T03:51:58.729Z,9.36
2019-03-29T03:52:58.714Z,9.34
2019-03-29T03:53:58.701Z,9.40
2019-03-29T03:54:58.670Z,9.36
2019-03-29T03:55:58.662Z,9.30
2019-03-29T03:56:58.639Z,9.33
2019-03-29T03:57:58.624Z,9.24
2019-03-29T03:58:58.594Z,9.26
2019-03-29T03:59:58.575Z,9.29
2019-03-29T04:00:58.562Z,9.27
2019-03-29T04:01:58.544Z,9.24
2019-03-29T04:02:58.533Z,9.27
2019-03-29T04:03:58.497Z,9.30
2019-03-29T04:04:58.501Z,9.24
2019-03-29T04:05:58.606Z,9.19
2019-03-29T04:06:58.442Z,9.22
2019-03-29T04:07:58.419Z,9.16
2019-03-29T04:08:58.397Z,9.15
2019-03-29T04:09:58.378Z,9.15
2019-03-29T04:10:58.362Z,9.12
2019-03-29T04:11:58.343Z,9.04
2019-03-29T04:12:58.320Z,9.12
2019-03-29T04:13:58.296Z,9.09
2019-03-29T04:14:58.277Z,9.12
2019-03-29T04:15:58.259Z,9.08
2019-03-29T04:16:58.234Z,9.04
2019-03-29T04:17:58.234Z,9.08
2019-03-29T04:18:58.198Z,9.06
2019-03-29T04:19:58.187Z,9.03
2019-03-29T04:20:58.165Z,8.95
2019-03-29T04:21:58.138Z,8.99
2019-03-29T04:22:58.120Z,9.04
2019-03-29T04:23:58.099Z,9.04
2019-03-29T04:24:58.076Z,9.01
2019-03-29T04:25:58.060Z,8.96
2019-03-29T04:26:58.039Z,9.04
2019-03-29T04:27:58.022Z,8.95
2019-03-29T04:29:04.659Z,9.04
2019-03-29T04:29:57.983Z,9.01
2019-03-29T04:30:57.959Z,8.96
2019-03-29T04:31:57.951Z,8.96
2019-03-29T04:32:57.931Z,8.92
2019-03-29T04:33:57.901Z,8.98
2019-03-29T04:34:57.884Z,9.06
2019-03-29T04:35:57.858Z,8.98
2019-03-29T04:36:57.839Z,9.01
2019-03-29T04:37:57.821Z,8.96
2019-03-29T04:38:57.794Z,8.99
2019-03-29T04:40:06.766Z,8.96
2019-03-29T04:40:57.755Z,8.89
2019-03-29T04:41:57.737Z,8.81
2019-03-29T04:42:57.722Z,8.90
2019-03-29T04:43:57.697Z,8.83
2019-03-29T04:44:59.896Z,8.86
2019-03-29T04:45:57.654Z,8.88
2019-03-29T04:46:57.637Z,8.88
2019-03-29T04:47:57.621Z,8.83
2019-03-29T04:48:57.599Z,8.83
2019-03-29T04:49:57.577Z,8.86
2019-03-29T04:50:57.556Z,8.86
2019-03-29T04:51:57.547Z,8.89
2019-03-29T04:52:57.517Z,8.88
2019-03-29T04:53:57.496Z,8.98
2019-03-29T04:54:57.475Z,8.99
2019-03-29T04:55:57.455Z,8.93
2019-03-29T04:56:57.434Z,8.98
2019-03-29T04:57:57.422Z,8.95
2019-03-29T04:58:57.397Z,8.88
2019-03-29T04:59:57.374Z,8.93
2019-03-29T05:00:57.358Z,8.85
2019-03-29T05:01:57.334Z,8.71
2019-03-29T05:02:57.318Z,8.74
2019-03-29T05:03:57.373Z,8.78
2019-03-29T05:04:57.275Z,8.75
2019-03-29T05:05:57.260Z,8.80
2019-03-29T05:06:57.239Z,8.62
2019-03-29T05:07:57.216Z,8.62
2019-03-29T05:08:57.195Z,8.62
2019-03-29T05:09:57.174Z,8.74
2019-03-29T05:10:57.160Z,8.70
2019-03-29T05:11:57.135Z,8.74
2019-03-29T05:12:59.600Z,8.77
2019-03-29T05:13:57.097Z,8.80
2019-03-29T05:14:57.081Z,8.81
2019-03-29T05:15:57.059Z,8.86
2019-03-29T05:16:57.036Z,8.83
2019-03-29T05:17:57.021Z,8.88
2019-03-29T05:18:56.992Z,8.88
2019-03-29T05:19:56.976Z,8.93
2019-03-29T05:20:56.992Z,8.95
2019-03-29T05:21:56.933Z,8.88
2019-03-29T05:22:56.915Z,8.85
2019-03-29T05:23:56.893Z,8.88
2019-03-29T05:24:56.873Z,8.90
2019-03-29T05:25:56.853Z,8.96
2019-03-29T05:26:56.834Z,8.88
2019-03-29T05:27:56.815Z,8.90
2019-03-29T05:28:56.796Z,8.96
2019-03-29T05:29:56.770Z,8.90
2019-03-29T05:30:56.751Z,8.89
2019-03-29T05:31:56.732Z,8.93
2019-03-29T05:32:56.715Z,8.80
2019-03-29T05:33:56.694Z,8.85
2019-03-29T05:34:56.674Z,8.86
2019-03-29T05:35:56.652Z,8.86
2019-03-29T05:36:58.481Z,8.92
2019-03-29T05:37:56.611Z,8.93
2019-03-29T05:38:56.595Z,8.92
2019-03-29T05:39:56.570Z,8.95
2019-03-29T05:40:56.551Z,8.85
2019-03-29T05:41:56.534Z,8.86
2019-03-29T05:42:56.518Z,8.86
2019-03-29T05:43:56.494Z,8.89
2019-03-29T05:44:56.471Z,8.81
2019-03-29T05:45:56.459Z,8.92
2019-03-29T05:46:56.432Z,8.90
2019-03-29T05:47:56.409Z,8.83
2019-03-29T05:48:56.390Z,8.89
2019-03-29T05:49:56.372Z,8.89
2019-03-29T05:50:56.350Z,8.88
2019-03-29T05:51:56.332Z,8.99
2019-03-29T05:52:56.311Z,8.98
2019-03-29T05:53:56.290Z,8.96
2019-03-29T05:54:56.273Z,8.92
2019-03-29T05:55:56.252Z,8.86
2019-03-29T05:56:56.243Z,8.86
2019-03-29T05:57:56.210Z,8.81
2019-03-29T05:58:56.188Z,8.72
2019-03-29T05:59:56.169Z,8.67
2019-03-29T06:00:56.150Z,8.68
2019-03-29T06:01:56.138Z,8.62
2019-03-29T06:02:56.118Z,8.59
2019-03-29T06:03:56.094Z,8.60
2019-03-29T06:04:56.074Z,8.65
2019-03-29T06:05:56.051Z,8.67
2019-03-29T06:06:56.035Z,8.67
2019-03-29T06:07:56.015Z,8.75
2019-03-29T06:08:55.991Z,8.62
2019-03-29T06:09:55.969Z,8.70
2019-03-29T06:10:55.953Z,8.74
2019-03-29T06:11:55.932Z,8.67
2019-03-29T06:12:55.913Z,8.63
2019-03-29T06:13:55.891Z,8.77
2019-03-29T06:14:55.874Z,8.67
2019-03-29T06:15:55.852Z,8.71
2019-03-29T06:16:55.830Z,8.67
2019-03-29T06:17:55.820Z,8.70
2019-03-29T06:18:55.794Z,8.63
2019-03-29T06:19:55.776Z,8.67
2019-03-29T06:20:55.762Z,8.63
2019-03-29T06:21:55.734Z,8.77
2019-03-29T06:22:55.713Z,8.67
2019-03-29T06:23:55.700Z,8.75
2019-03-29T06:24:55.675Z,8.80
2019-03-29T06:25:55.677Z,8.83
2019-03-29T06:26:55.633Z,8.88
2019-03-29T06:27:55.639Z,8.83
2019-03-29T06:28:55.598Z,8.90
2019-03-29T06:29:55.577Z,8.86
2019-03-29T06:30:55.559Z,9.03
2019-03-29T06:31:55.539Z,8.98
2019-03-29T06:32:55.516Z,9.03
2019-03-29T06:33:55.496Z,9.15
2019-03-29T06:34:55.478Z,9.19
2019-03-29T06:35:55.457Z,9.33
2019-03-29T06:36:55.442Z,9.42
2019-03-29T06:37:55.428Z,9.51
2019-03-29T06:38:55.398Z,9.67
2019-03-29T06:39:55.384Z,9.62
2019-03-29T06:41:02.896Z,9.66
2019-03-29T06:41:55.338Z,9.78
2019-03-29T06:42:55.319Z,9.90
2019-03-29T06:43:55.301Z,9.96
2019-03-29T06:44:55.285Z,10.02
2019-03-29T06:45:55.261Z,9.99
2019-03-29T06:46:55.245Z,9.93
2019-03-29T06:47:55.221Z,9.94
2019-03-29T06:48:55.201Z,9.72
2019-03-29T06:49:55.195Z,9.72
2019-03-29T06:50:55.173Z,9.66
2019-03-29T06:51:55.153Z,9.70
2019-03-29T06:52:55.125Z,9.85
2019-03-29T06:53:55.104Z,9.93
2019-03-29T06:54:55.087Z,9.93
2019-03-29T06:55:55.067Z,9.77
2019-03-29T06:56:55.047Z,9.72
2019-03-29T06:57:55.027Z,9.87
2019-03-29T06:58:55.017Z,9.85
2019-03-29T06:59:54.998Z,9.99
2019-03-29T07:00:54.996Z,10.06
2019-03-29T07:01:54.955Z,10.08
2019-03-29T07:02:54.937Z,10.08
2019-03-29T07:03:54.924Z,10.16
2019-03-29T07:04:54.903Z,10.21
2019-03-29T07:05:54.890Z,10.42
2019-03-29T07:06:54.874Z,10.75
2019-03-29T07:07:54.870Z,10.90
2019-03-29T07:08:54.841Z,11.52
2019-03-29T07:09:54.827Z,11.93
2019-03-29T07:10:54.821Z,12.61
2019-03-29T07:11:54.795Z,13.20
2019-03-29T07:12:56.348Z,13.57
2019-03-29T07:13:57.763Z,13.63
2019-03-29T07:14:54.753Z,13.64
2019-03-29T07:15:54.745Z,13.85
2019-03-29T07:16:54.733Z,14.11
2019-03-29T07:17:54.724Z,14.44
2019-03-29T07:18:54.713Z,14.15
2019-03-29T07:19:54.707Z,14.26
2019-03-29T07:20:54.691Z,14.37
2019-03-29T07:21:54.679Z,14.21
2019-03-29T07:22:54.669Z,13.97
2019-03-29T07:23:54.660Z,13.93
2019-03-29T07:24:54.647Z,14.13
2019-03-29T07:25:56.415Z,14.59
2019-03-29T07:26:54.642Z,15.26
2019-03-29T07:27:54.625Z,15.66
2019-03-29T07:28:54.620Z,16.08
2019-03-29T07:29:54.613Z,16.46
2019-03-29T07:30:54.603Z,17.10
2019-03-29T07:31:54.595Z,17.52
2019-03-29T07:32:54.586Z,18.13
2019-03-29T07:33:54.587Z,18.71
2019-03-29T07:34:54.579Z,18.66
2019-03-29T07:35:54.575Z,19.00
2019-03-29T07:36:54.568Z,19.12
2019-03-29T07:37:54.557Z,19.00
2019-03-29T07:38:54.552Z,18.33
2019-03-29T07:39:54.548Z,18.54
2019-03-29T07:40:54.645Z,18.49
2019-03-29T07:41:54.549Z,19.13
2019-03-29T07:42:54.544Z,19.72
2019-03-29T07:43:54.540Z,19.38
2019-03-29T07:44:54.528Z,19.89
2019-03-29T07:45:54.525Z,20.56
2019-03-29T07:46:54.526Z,20.89
2019-03-29T07:47:54.518Z,21.35
2019-03-29T07:48:54.529Z,21.73
2019-03-29T07:49:54.522Z,20.90
2019-03-29T07:50:54.515Z,20.73
2019-03-29T07:51:54.510Z,20.68
2019-03-29T07:52:54.528Z,21.22
2019-03-29T07:53:54.507Z,21.91
2019-03-29T07:54:54.501Z,22.38
2019-03-29T07:55:54.500Z,22.73
2019-03-29T07:56:54.505Z,22.33
2019-03-29T07:57:54.576Z,21.47
2019-03-29T07:58:54.501Z,22.19
2019-03-29T07:59:54.498Z,22.81
2019-03-29T08:00:54.496Z,23.10
2019-03-29T08:01:54.495Z,23.85
2019-03-29T08:02:55.389Z,24.13
2019-03-29T08:03:54.502Z,24.66
2019-03-29T08:04:54.492Z,24.99
2019-03-29T08:05:54.502Z,25.28
2019-03-29T08:06:54.492Z,25.59
2019-03-29T08:07:54.495Z,25.67
2019-03-29T08:08:54.496Z,25.96
2019-03-29T08:09:54.529Z,25.86
2019-03-29T08:10:54.493Z,23.91
2019-03-29T08:11:55.383Z,23.46
2019-03-29T08:12:54.498Z,23.71
2019-03-29T08:13:54.499Z,24.18
2019-03-29T08:14:54.502Z,24.62
2019-03-29T08:15:54.501Z,24.37
2019-03-29T08:16:54.499Z,24.47
2019-03-29T08:17:54.502Z,24.91
2019-03-29T08:18:54.514Z,24.91
2019-03-29T08:20:24.498Z,24.94
2019-03-29T08:20:54.505Z,24.85
2019-03-29T08:21:57.690Z,25.21
2019-03-29T08:22:54.509Z,25.21
2019-03-29T08:23:54.520Z,25.19
2019-03-29T08:24:54.516Z,25.19
2019-03-29T08:25:54.517Z,25.68
2019-03-29T08:26:54.526Z,25.88
2019-03-29T08:27:54.520Z,26.07
2019-03-29T08:28:54.525Z,26.23
2019-03-29T08:29:54.525Z,26.33
2019-03-29T08:30:54.529Z,25.48
2019-03-29T08:31:55.725Z,24.70
2019-03-29T08:32:54.533Z,24.86
2019-03-29T08:33:54.540Z,25.28
2019-03-29T08:34:54.537Z,25.66
2019-03-29T08:35:54.543Z,26.16
2019-03-29T08:36:54.546Z,26.21
2019-03-29T08:37:54.556Z,26.64
2019-03-29T08:38:54.556Z,26.04
2019-03-29T08:39:56.464Z,26.21
2019-03-29T08:40:54.556Z,26.43
2019-03-29T08:42:00.293Z,26.64
2019-03-29T08:42:54.561Z,26.80
2019-03-29T08:43:54.567Z,25.67
2019-03-29T08:44:54.568Z,24.85
2019-03-29T08:45:57.400Z,24.31
2019-03-29T08:46:54.570Z,24.53
2019-03-29T08:47:54.579Z,25.01
2019-03-29T08:48:54.587Z,25.46
2019-03-29T08:49:54.579Z,25.66
2019-03-29T08:50:54.584Z,26.00
2019-03-29T08:51:54.586Z,26.20
2019-03-29T08:52:54.601Z,26.57
2019-03-29T08:53:54.589Z,26.53
2019-03-29T08:54:54.592Z,26.70
2019-03-29T08:55:54.597Z,26.93
2019-03-29T08:56:54.594Z,27.03
2019-03-29T08:57:54.614Z,27.10
2019-03-29T08:58:54.603Z,26.98
2019-03-29T08:59:54.604Z,26.89
2019-03-29T09:00:54.606Z,26.67
2019-03-29T09:01:54.619Z,25.92
2019-03-29T09:02:54.610Z,25.58
2019-03-29T09:04:04.860Z,25.81
2019-03-29T09:04:54.621Z,25.98
2019-03-29T09:05:54.619Z,26.60
2019-03-29T09:06:54.626Z,26.80
2019-03-29T09:07:54.637Z,27.07
2019-03-29T09:08:54.664Z,27.17
2019-03-29T09:09:54.640Z,26.90
2019-03-29T09:10:54.625Z,27.12
2019-03-29T09:11:54.627Z,27.25
2019-03-29T09:12:54.639Z,27.30
2019-03-29T09:13:54.632Z,27.53
2019-03-29T09:14:54.638Z,26.75
2019-03-29T09:15:54.650Z,26.11
2019-03-29T09:16:54.633Z,26.57
2019-03-29T09:17:54.653Z,27.07
2019-03-29T09:18:54.634Z,27.63
2019-03-29T09:19:54.642Z,28.12
2019-03-29T09:20:54.641Z,28.34
2019-03-29T09:21:54.637Z,27.98
2019-03-29T09:22:54.635Z,28.15
2019-03-29T09:23:54.634Z,28.49
2019-03-29T09:24:54.644Z,28.87
2019-03-29T09:25:54.642Z,28.86
2019-03-29T09:26:54.648Z,28.83
2019-03-29T09:27:54.645Z,28.98
2019-03-29T09:28:54.639Z,29.12
2019-03-29T09:29:54.636Z,29.04
2019-03-29T09:30:56.584Z,29.12
2019-03-29T09:31:54.635Z,29.24
2019-03-29T09:32:54.646Z,29.36
2019-03-29T09:33:54.637Z,29.40
2019-03-29T09:34:54.634Z,29.55
2019-03-29T09:35:54.639Z,29.62
2019-03-29T09:36:54.632Z,29.71
2019-03-29T09:37:56.480Z,29.34
2019-03-29T09:38:54.628Z,29.34
2019-03-29T09:39:54.635Z,27.93
2019-03-29T09:40:58.663Z,26.45
2019-03-29T09:41:54.626Z,25.74
2019-03-29T09:43:06.928Z,25.22
2019-03-29T09:43:54.822Z,24.82
2019-03-29T09:44:54.619Z,24.47
2019-03-29T09:45:54.620Z,24.11
2019-03-29T09:46:54.612Z,23.79
2019-03-29T09:47:56.004Z,23.31
2019-03-29T09:48:54.605Z,23.04
2019-03-29T09:49:54.604Z,22.16
2019-03-29T09:50:54.601Z,21.69
2019-03-29T09:51:54.594Z,21.20
2019-03-29T09:52:54.588Z,20.61
2019-03-29T09:53:57.798Z,20.71
2019-03-29T09:54:54.628Z,20.61
2019-03-29T09:55:54.563Z,20.71
2019-03-29T09:56:54.573Z,20.73
2019-03-29T09:57:54.586Z,20.26
2019-03-29T09:58:54.549Z,19.87
2019-03-29T09:59:54.540Z,19.87
2019-03-29T10:00:54.529Z,19.87
2019-03-29T10:01:54.523Z,20.29
2019-03-29T10:02:54.515Z,20.55
2019-03-29T10:03:54.515Z,20.68
2019-03-29T10:04:54.499Z,21.00
2019-03-29T10:05:54.500Z,21.22
2019-03-29T10:06:54.484Z,21.43
2019-03-29T10:07:54.473Z,21.66
2019-03-29T10:08:54.465Z,21.91
2019-03-29T10:09:54.458Z,22.09
2019-03-29T10:10:54.461Z,22.22
2019-03-29T10:11:54.526Z,22.11
2019-03-29T10:12:54.431Z,21.55
2019-03-29T10:13:54.423Z,21.20
2019-03-29T10:14:54.413Z,21.30
2019-03-29T10:15:54.409Z,21.45
2019-03-29T10:16:54.404Z,21.56
2019-03-29T10:17:54.388Z,21.65
2019-03-29T10:18:54.381Z,21.59
2019-03-29T10:19:54.379Z,21.65
2019-03-29T10:20:54.362Z,21.82
2019-03-29T10:21:54.353Z,21.67
2019-03-29T10:22:54.345Z,21.73
2019-03-29T10:23:54.335Z,21.66
2019-03-29T10:24:54.327Z,21.63
2019-03-29T10:25:54.315Z,21.78
2019-03-29T10:26:54.313Z,21.77
2019-03-29T10:27:54.299Z,21.69
2019-03-29T10:28:54.294Z,21.88
2019-03-29T10:29:54.291Z,22.18
2019-03-29T10:30:54.277Z,22.33
2019-03-29T10:31:54.263Z,22.51
2019-03-29T10:32:55.539Z,22.55
2019-03-29T10:33:54.249Z,22.41
2019-03-29T10:34:54.244Z,22.52
2019-03-29T10:35:54.233Z,22.61
2019-03-29T10:36:54.228Z,22.07
2019-03-29T10:37:54.214Z,22.09
2019-03-29T10:38:54.206Z,22.12
2019-03-29T10:39:54.403Z,22.13
2019-03-29T10:40:54.186Z,22.31
2019-03-29T10:41:54.181Z,22.48
2019-03-29T10:42:57.993Z,22.64
2019-03-29T10:43:54.173Z,22.74
2019-03-29T10:44:54.166Z,22.89
2019-03-29T10:45:54.147Z,22.95
2019-03-29T10:46:54.151Z,22.95
2019-03-29T10:47:54.129Z,23.08
2019-03-29T10:48:54.118Z,23.21
2019-03-29T10:49:54.203Z,23.29
2019-03-29T10:50:54.103Z,23.08
2019-03-29T10:51:54.092Z,23.08
2019-03-29T10:52:54.168Z,23.21
2019-03-29T10:53:54.083Z,23.34
2019-03-29T10:54:54.079Z,23.39
2019-03-29T10:55:54.065Z,23.23
2019-03-29T10:56:54.053Z,23.23
2019-03-29T10:57:54.046Z,22.99
2019-03-29T10:58:54.039Z,23.13
2019-03-29T10:59:54.030Z,23.08
2019-03-29T11:00:54.039Z,23.03
2019-03-29T11:01:54.020Z,23.13
2019-03-29T11:02:54.007Z,23.06
2019-03-29T11:03:54.004Z,22.99
2019-03-29T11:04:53.995Z,22.86
2019-03-29T11:05:53.983Z,22.85
2019-03-29T11:06:53.979Z,22.74
2019-03-29T11:07:53.965Z,22.88
2019-03-29T11:08:53.957Z,22.91
2019-03-29T11:09:53.949Z,23.08
2019-03-29T11:10:53.939Z,23.07
2019-03-29T11:11:53.931Z,23.14
2019-03-29T11:12:53.923Z,23.11
2019-03-29T11:13:56.650Z,23.21
2019-03-29T11:14:53.912Z,23.31
2019-03-29T11:15:53.902Z,23.17
2019-03-29T11:16:53.889Z,23.26
2019-03-29T11:17:53.885Z,23.29
2019-03-29T11:18:53.902Z,23.21
2019-03-29T11:19:53.864Z,23.17
2019-03-29T11:20:53.857Z,23.17
2019-03-29T11:21:53.851Z,23.18
2019-03-29T11:22:53.841Z,23.13
2019-03-29T11:23:53.829Z,23.01
2019-03-29T11:24:53.823Z,22.85
2019-03-29T11:25:53.813Z,22.83
2019-03-29T11:26:53.805Z,22.64
2019-03-29T11:27:53.793Z,22.52
2019-03-29T11:28:53.788Z,22.61
2019-03-29T11:29:53.793Z,22.74
2019-03-29T11:30:53.770Z,22.81
2019-03-29T11:31:53.755Z,22.88
2019-03-29T11:32:53.749Z,22.86
2019-03-29T11:33:53.744Z,22.89
2019-03-29T11:34:53.729Z,23.08
2019-03-29T11:35:53.730Z,22.96
2019-03-29T11:36:53.714Z,23.11
2019-03-29T11:37:53.752Z,22.93
2019-03-29T11:38:53.698Z,22.52
2019-03-29T11:39:53.689Z,22.59
2019-03-29T11:40:53.679Z,22.59
2019-03-29T11:41:53.671Z,22.74
2019-03-29T11:42:53.657Z,22.85
2019-03-29T11:43:53.651Z,22.93
2019-03-29T11:44:53.638Z,23.04
2019-03-29T11:45:53.630Z,23.23
2019-03-29T11:46:53.621Z,23.07
2019-03-29T11:48:07.372Z,23.15
2019-03-29T11:48:53.601Z,23.25
2019-03-29T11:49:53.594Z,23.14
2019-03-29T11:50:53.587Z,23.36
2019-03-29T11:51:53.579Z,23.36
2019-03-29T11:52:53.565Z,23.36
2019-03-29T11:53:53.559Z,23.48
2019-03-29T11:54:53.544Z,23.49
2019-03-29T11:55:53.544Z,23.60
2019-03-29T11:56:53.534Z,23.82
2019-03-29T11:57:55.891Z,23.73
2019-03-29T11:58:53.508Z,23.71
2019-03-29T11:59:53.503Z,23.71
2019-03-29T12:00:53.498Z,23.78
2019-03-29T12:01:53.482Z,23.78
2019-03-29T12:02:53.482Z,23.67
2019-03-29T12:03:53.464Z,23.76
2019-03-29T12:04:53.453Z,23.86
2019-03-29T12:05:53.446Z,23.69
2019-03-29T12:06:53.435Z,23.61
2019-03-29T12:07:53.427Z,23.61
2019-03-29T12:08:56.908Z,23.59
2019-03-29T12:09:53.411Z,23.69
2019-03-29T12:10:53.402Z,23.63
2019-03-29T12:11:53.393Z,23.97
2019-03-29T12:12:53.391Z,24.00
2019-03-29T12:13:53.377Z,24.11
2019-03-29T12:14:53.381Z,24.23
2019-03-29T12:15:53.367Z,24.18
2019-03-29T12:16:53.349Z,23.69
2019-03-29T12:17:53.343Z,23.67
2019-03-29T12:18:53.331Z,23.78
2019-03-29T12:19:53.322Z,23.71
2019-03-29T12:20:54.490Z,23.82
2019-03-29T12:21:53.305Z,23.84
2019-03-29T12:22:53.292Z,23.79
2019-03-29T12:23:53.284Z,23.07
2019-03-29T12:24:53.274Z,22.64
2019-03-29T12:25:53.270Z,22.77
2019-03-29T12:26:55.013Z,22.88
2019-03-29T12:27:53.244Z,22.95
2019-03-29T12:28:53.237Z,22.74
2019-03-29T12:29:53.235Z,23.04
2019-03-29T12:30:53.227Z,23.23
2019-03-29T12:31:53.210Z,23.46
2019-03-29T12:32:53.199Z,23.73
2019-03-29T12:33:53.193Z,23.94
2019-03-29T12:34:53.181Z,23.89
2019-03-29T12:35:53.174Z,24.03
2019-03-29T12:36:53.195Z,24.00
2019-03-29T12:37:53.161Z,23.84
2019-03-29T12:38:53.146Z,23.60
2019-03-29T12:39:53.138Z,23.56
2019-03-29T12:40:53.128Z,23.61
2019-03-29T12:41:53.117Z,23.79
2019-03-29T12:42:53.108Z,23.44
2019-03-29T12:43:55.685Z,23.42
2019-03-29T12:44:53.093Z,23.31
2019-03-29T12:45:53.085Z,23.13
2019-03-29T12:46:53.073Z,23.34
2019-03-29T12:47:53.065Z,23.54
2019-03-29T12:48:53.055Z,23.78
2019-03-29T12:49:53.045Z,24.00
2019-03-29T12:50:53.046Z,24.13
2019-03-29T12:51:53.030Z,24.16
2019-03-29T12:52:53.012Z,24.44
2019-03-29T12:53:53.012Z,24.62
2019-03-29T12:54:52.995Z,24.55
2019-03-29T12:55:52.987Z,24.56
2019-03-29T12:56:52.983Z,24.53
2019-03-29T12:57:52.966Z,24.58
2019-03-29T12:58:52.956Z,24.63
2019-03-29T12:59:52.947Z,24.65